createdAt,value
2018-09-04T00:00:05.601Z,54.00
2018-09-04T00:01:05.578Z,52.80
2018-09-04T00:02:05.566Z,51.10
2018-09-04T00:03:05.545Z,51.40
2018-09-04T00:04:05.536Z,51.90
2018-09-04T00:05:05.520Z,54.00
2018-09-04T00:06:05.502Z,53.00
2018-09-04T00:07:05.792Z,55.70
2018-09-04T00:08:05.472Z,54.10
2018-09-04T00:09:05.776Z,56.80
2018-09-04T00:10:05.439Z,54.30
2018-09-04T00:11:05.427Z,52.20
2018-09-04T00:12:05.429Z,55.60
2018-09-04T00:13:05.393Z,54.10
2018-09-04T00:14:05.702Z,52.60
2018-09-04T00:15:05.365Z,53.60
2018-09-04T00:16:05.346Z,52.30
2018-09-04T00:17:05.771Z,52.60
2018-09-04T00:18:05.320Z,51.40
2018-09-04T00:19:05.301Z,53.00
2018-09-04T00:20:05.287Z,51.80
2018-09-04T00:21:05.271Z,52.00
2018-09-04T00:22:05.292Z,52.20
2018-09-04T00:23:05.238Z,49.70
2018-09-04T00:24:05.233Z,49.40
2018-09-04T00:25:05.222Z,50.40
2018-09-04T00:26:05.196Z,49.80
2018-09-04T00:27:05.182Z,46.90
2018-09-04T00:28:05.161Z,49.10
2018-09-04T00:29:05.150Z,49.00
2018-09-04T00:30:05.137Z,49.60
2018-09-04T00:31:05.124Z,48.80
2018-09-04T00:32:05.100Z,49.90
2018-09-04T00:33:05.084Z,49.90
2018-09-04T00:34:05.081Z,49.00
2018-09-04T00:35:05.383Z,51.40
2018-09-04T00:36:05.068Z,51.90
2018-09-04T00:37:05.559Z,51.00
2018-09-04T00:38:05.332Z,49.80
2018-09-04T00:39:05.714Z,49.80
2018-09-04T00:40:04.980Z,47.70
2018-09-04T00:41:05.163Z,47.70
2018-09-04T00:42:04.949Z,46.40
2018-09-04T00:43:05.136Z,47.70
2018-09-04T00:44:05.228Z,46.70
2018-09-04T00:45:05.232Z,45.80
2018-09-04T00:46:04.901Z,48.70
2018-09-04T00:47:04.870Z,46.60
2018-09-04T00:48:05.177Z,48.80
2018-09-04T00:49:05.158Z,48.00
2018-09-04T00:50:05.060Z,45.60
2018-09-04T00:51:05.110Z,44.70
2018-09-04T00:52:04.797Z,44.30
2018-09-04T00:53:04.791Z,44.60
2018-09-04T00:55:04.750Z,45.70
2018-09-04T00:56:04.743Z,45.90
2018-09-04T00:57:04.718Z,46.30
2018-09-04T00:58:04.710Z,44.30
2018-09-04T00:59:04.784Z,43.70
2018-09-04T01:00:04.665Z,43.10
2018-09-04T01:01:04.977Z,44.10
2018-09-04T01:03:05.139Z,43.60
2018-09-04T01:04:05.346Z,43.80
2018-09-04T01:06:04.891Z,45.90
2018-09-04T01:07:05.284Z,43.50
2018-09-04T01:08:04.880Z,43.80
2018-09-04T01:09:04.854Z,45.50
2018-09-04T01:10:04.740Z,44.80
2018-09-04T01:12:04.816Z,45.60
2018-09-04T01:13:04.692Z,43.90
2018-09-04T01:14:04.751Z,43.80
2018-09-04T01:15:04.433Z,44.50
2018-09-04T01:16:04.451Z,44.30
2018-09-04T01:17:04.405Z,46.50
2018-09-04T01:18:04.389Z,45.40
2018-09-04T01:19:04.387Z,46.20
2018-09-04T01:20:04.354Z,46.70
2018-09-04T01:21:04.683Z,46.50
2018-09-04T01:22:04.523Z,46.70
2018-09-04T01:23:04.304Z,48.10
2018-09-04T01:24:04.290Z,45.10
2018-09-04T01:25:04.596Z,46.20
2018-09-04T01:26:04.263Z,46.80
2018-09-04T01:27:04.969Z,45.80
2018-09-04T01:28:04.431Z,47.20
2018-09-04T01:29:04.537Z,46.00
2018-09-04T01:30:04.211Z,45.20
2018-09-04T01:31:04.194Z,46.20
2018-09-04T01:32:04.195Z,43.90
2018-09-04T01:33:04.348Z,46.80
2018-09-04T01:34:04.883Z,43.60
2018-09-04T01:35:04.430Z,46.40
2018-09-04T01:36:04.431Z,46.50
2018-09-04T01:37:04.087Z,46.20
2018-09-04T01:38:04.395Z,43.60
2018-09-04T01:39:04.370Z,44.10
2018-09-04T01:40:04.264Z,41.90
2018-09-04T01:41:04.748Z,43.00
2018-09-04T01:42:04.541Z,41.20
2018-09-04T01:45:04.285Z,43.40
2018-09-04T01:46:04.262Z,42.30
2018-09-04T01:48:03.947Z,42.60
2018-09-04T01:49:03.937Z,38.80
2018-09-04T01:51:04.608Z,41.60
2018-09-04T01:52:03.873Z,43.10
2018-09-04T01:53:04.060Z,42.00
2018-09-04T01:58:04.090Z,39.40
2018-09-04T01:59:03.748Z,39.80
2018-09-04T02:00:03.734Z,39.90
2018-09-04T02:01:03.749Z,40.20
2018-09-04T02:02:04.020Z,41.10
2018-09-04T02:03:03.698Z,41.20
2018-09-04T02:04:03.667Z,39.30
2018-09-04T02:05:03.681Z,37.30
2018-09-04T02:06:03.947Z,39.50
2018-09-04T02:07:03.625Z,41.30
2018-09-04T02:08:03.606Z,41.20
2018-09-04T02:10:03.589Z,40.40
2018-09-04T02:11:03.566Z,40.90
2018-09-04T02:12:03.747Z,42.10
2018-09-04T02:13:03.529Z,40.00
2018-09-04T02:14:03.529Z,42.30
2018-09-04T02:15:03.501Z,42.10
2018-09-04T02:16:03.483Z,44.10
2018-09-04T02:17:03.702Z,43.10
2018-09-04T02:18:03.460Z,42.10
2018-09-04T02:19:03.767Z,41.50
2018-09-04T02:20:03.420Z,42.20
2018-09-04T02:21:03.407Z,40.30
2018-09-04T02:22:03.416Z,39.60
2018-09-04T02:24:03.659Z,43.70
2018-09-04T02:25:03.647Z,42.80
2018-09-04T02:26:03.655Z,43.20
2018-09-04T02:27:03.317Z,45.40
2018-09-04T02:28:03.629Z,43.80
2018-09-04T02:29:03.296Z,42.40
2018-09-04T02:30:03.468Z,42.50
2018-09-04T02:32:03.438Z,40.50
2018-09-04T02:33:03.304Z,40.40
2018-09-04T02:34:03.232Z,41.60
2018-09-04T02:35:03.189Z,38.30
2018-09-04T02:36:03.185Z,38.90
2018-09-04T02:37:03.680Z,40.40
2018-09-04T02:38:03.143Z,40.10
2018-09-04T02:39:03.451Z,39.40
2018-09-04T02:40:03.111Z,40.20
2018-09-04T02:41:03.430Z,41.00
2018-09-04T02:42:03.402Z,36.50
2018-09-04T02:43:03.082Z,37.80
2018-09-04T02:44:03.374Z,36.10
2018-09-04T02:45:03.237Z,37.80
2018-09-04T02:46:03.019Z,37.70
2018-09-04T02:47:03.020Z,36.10
2018-09-04T02:48:03.014Z,35.30
2018-09-04T02:49:03.291Z,39.00
2018-09-04T02:50:02.961Z,39.70
2018-09-04T02:51:03.270Z,39.20
2018-09-04T02:52:02.938Z,38.40
2018-09-04T02:53:02.910Z,39.90
2018-09-04T02:54:03.218Z,38.30
2018-09-04T02:55:02.878Z,38.40
2018-09-04T02:56:03.188Z,39.10
2018-09-04T02:57:03.167Z,37.60
2018-09-04T02:58:02.835Z,38.20
2018-09-04T02:59:02.824Z,38.50
2018-09-04T03:00:02.802Z,37.70
2018-09-04T03:01:02.796Z,40.00
2018-09-04T03:02:02.772Z,39.10
2018-09-04T03:03:02.755Z,38.70
2018-09-04T03:04:02.743Z,37.80
2018-09-04T03:05:02.791Z,42.50
2018-09-04T03:06:02.712Z,43.50
2018-09-04T03:07:02.701Z,41.60
2018-09-04T03:08:02.681Z,41.50
2018-09-04T03:09:02.666Z,39.00
2018-09-04T03:10:03.169Z,39.60
2018-09-04T03:11:02.666Z,41.20
2018-09-04T03:12:02.933Z,38.90
2018-09-04T03:13:02.634Z,41.70
2018-09-04T03:15:02.909Z,41.00
2018-09-04T03:16:02.573Z,43.70
2018-09-04T03:17:02.542Z,43.70
2018-09-04T03:18:02.540Z,44.10
2018-09-04T03:19:02.511Z,41.60
2018-09-04T03:20:02.508Z,41.90
2018-09-04T03:21:02.479Z,42.80
2018-09-04T03:22:02.469Z,42.60
2018-09-04T03:23:02.495Z,41.50
2018-09-04T03:24:02.431Z,39.50
2018-09-04T03:25:02.424Z,43.10
2018-09-04T03:26:02.704Z,39.00
2018-09-04T03:27:02.382Z,40.40
2018-09-04T03:28:02.368Z,40.80
2018-09-04T03:29:02.351Z,41.60
2018-09-04T03:30:02.372Z,38.00
2018-09-04T03:31:02.341Z,42.30
2018-09-04T03:32:02.310Z,41.30
2018-09-04T03:33:02.287Z,40.10
2018-09-04T03:34:02.275Z,39.80
2018-09-04T03:35:02.260Z,39.00
2018-09-04T03:36:02.243Z,41.00
2018-09-04T03:37:02.552Z,41.40
2018-09-04T03:38:02.212Z,40.70
2018-09-04T03:39:02.528Z,40.60
2018-09-04T03:40:02.177Z,42.60
2018-09-04T03:41:02.178Z,40.90
2018-09-04T03:42:02.148Z,44.00
2018-09-04T03:43:02.154Z,43.40
2018-09-04T03:44:02.116Z,44.50
2018-09-04T03:45:02.138Z,45.00
2018-09-04T03:46:02.087Z,45.20
2018-09-04T03:47:02.069Z,44.20
2018-09-04T03:48:02.376Z,42.90
2018-09-04T03:49:02.041Z,48.60
2018-09-04T03:50:02.045Z,44.50
2018-09-04T03:51:02.007Z,43.60
2018-09-04T03:52:01.990Z,45.70
2018-09-04T03:53:01.978Z,46.70
2018-09-04T03:54:01.969Z,44.20
2018-09-04T03:55:01.968Z,45.60
2018-09-04T03:56:01.928Z,44.40
2018-09-04T03:57:01.911Z,43.20
2018-09-04T03:58:02.217Z,43.30
2018-09-04T03:59:01.918Z,42.60
2018-09-04T04:00:02.186Z,43.00
2018-09-04T04:01:02.172Z,45.50
2018-09-04T04:02:02.151Z,44.80
2018-09-04T04:03:02.538Z,45.20
2018-09-04T04:04:02.123Z,45.30
2018-09-04T04:05:01.816Z,41.50
2018-09-04T04:06:01.769Z,43.40
2018-09-04T04:07:02.072Z,46.10
2018-09-04T04:08:01.741Z,43.10
2018-09-04T04:09:01.722Z,43.40
2018-09-04T04:10:01.706Z,42.90
2018-09-04T04:11:01.695Z,41.30
2018-09-04T04:12:01.762Z,46.20
2018-09-04T04:13:01.977Z,47.00
2018-09-04T04:14:01.650Z,45.60
2018-09-04T04:15:01.685Z,44.20
2018-09-04T04:20:01.870Z,45.10
2018-09-04T04:21:01.856Z,47.10
2018-09-04T04:22:01.823Z,47.20
2018-09-04T04:23:01.829Z,48.70
2018-09-04T04:24:01.818Z,45.70
2018-09-04T04:28:02.349Z,49.90
2018-09-04T04:29:01.439Z,50.30
2018-09-04T04:30:02.128Z,50.40
2018-09-04T04:31:01.704Z,51.90
2018-09-04T04:32:01.679Z,51.70
2018-09-04T04:33:01.981Z,51.60
2018-09-04T04:34:01.663Z,50.50
2018-09-04T04:35:01.560Z,50.50
2018-09-04T04:36:01.311Z,52.90
2018-09-04T04:37:01.280Z,53.30
2018-09-04T04:38:01.277Z,51.70
2018-09-04T04:39:01.262Z,48.80
2018-09-04T04:40:01.264Z,49.70
2018-09-04T04:41:01.218Z,50.00
2018-09-04T04:42:01.207Z,50.20
2018-09-04T04:43:01.187Z,48.60
2018-09-04T04:44:01.173Z,50.30
2018-09-04T04:45:01.155Z,49.80
2018-09-04T04:46:01.137Z,49.50
2018-09-04T04:47:01.119Z,51.00
2018-09-04T04:48:01.179Z,51.20
2018-09-04T04:49:01.091Z,48.50
2018-09-04T04:50:01.076Z,51.30
2018-09-04T04:51:01.057Z,48.20
2018-09-04T04:52:01.063Z,47.90
2018-09-04T04:53:01.024Z,49.80
2018-09-04T04:54:01.016Z,47.60
2018-09-04T04:55:00.998Z,49.50
2018-09-04T04:56:00.979Z,48.90
2018-09-04T04:57:00.970Z,47.70
2018-09-04T04:58:00.948Z,48.20
2018-09-04T04:59:00.931Z,50.40
2018-09-04T05:00:00.914Z,48.50
2018-09-04T05:01:00.899Z,51.20
2018-09-04T05:02:00.890Z,49.30
2018-09-04T05:03:00.862Z,49.00
2018-09-04T05:04:00.852Z,48.70
2018-09-04T05:05:00.841Z,50.10
2018-09-04T05:06:00.824Z,49.90
2018-09-04T05:07:00.801Z,50.50
2018-09-04T05:08:00.786Z,51.50
2018-09-04T05:09:00.770Z,50.00
2018-09-04T05:10:00.755Z,50.00
2018-09-04T05:11:00.767Z,50.30
2018-09-04T05:12:00.730Z,50.90
2018-09-04T05:13:00.714Z,52.70
2018-09-04T05:14:00.693Z,53.70
2018-09-04T05:15:00.677Z,48.20
2018-09-04T05:16:00.658Z,47.80
2018-09-04T05:17:00.646Z,48.00
2018-09-04T05:18:00.630Z,48.10
2018-09-04T05:19:00.611Z,47.60
2018-09-04T05:20:00.597Z,48.10
2018-09-04T05:21:00.581Z,49.10
2018-09-04T05:22:00.565Z,48.70
2018-09-04T05:23:00.549Z,48.50
2018-09-04T05:24:00.537Z,50.40
2018-09-04T05:25:00.513Z,52.40
2018-09-04T05:26:00.497Z,54.20
2018-09-04T05:27:00.483Z,52.70
2018-09-04T05:28:00.470Z,52.20
2018-09-04T05:29:00.454Z,51.30
2018-09-04T05:30:00.440Z,51.40
2018-09-04T05:31:00.420Z,51.10
2018-09-04T05:32:00.408Z,50.80
2018-09-04T05:33:00.387Z,50.40
2018-09-04T05:34:00.371Z,47.70
2018-09-04T05:35:00.360Z,48.60
2018-09-04T05:36:00.339Z,53.00
2018-09-04T05:37:00.339Z,52.30
2018-09-04T05:38:00.312Z,55.30
2018-09-04T05:39:00.294Z,54.30
2018-09-04T05:40:00.276Z,51.60
2018-09-04T05:41:00.262Z,52.90
2018-09-04T05:42:00.254Z,51.80
2018-09-04T05:43:00.231Z,57.30
2018-09-04T05:44:00.216Z,57.00
2018-09-04T05:45:00.196Z,55.20
2018-09-04T05:46:00.184Z,53.10
2018-09-04T05:47:00.164Z,54.80
2018-09-04T05:48:00.148Z,52.90
2018-09-04T05:49:00.143Z,52.20
2018-09-04T05:50:00.120Z,52.50
2018-09-04T05:51:00.104Z,54.50
2018-09-04T05:52:00.086Z,53.50
2018-09-04T05:53:00.077Z,50.00
2018-09-04T05:54:00.059Z,51.00
2018-09-04T05:55:00.038Z,53.70
2018-09-04T05:56:00.019Z,56.00
2018-09-04T05:57:00.010Z,55.00
2018-09-04T05:57:59.990Z,55.90
2018-09-04T05:58:59.985Z,55.50
2018-09-04T05:59:59.954Z,55.40
2018-09-04T06:00:59.940Z,55.70
2018-09-04T06:01:59.927Z,55.60
2018-09-04T06:02:59.911Z,54.00
2018-09-04T06:03:59.894Z,55.20
2018-09-04T06:04:59.881Z,56.60
2018-09-04T06:05:59.864Z,55.70
2018-09-04T06:06:59.852Z,53.30
2018-09-04T06:07:59.834Z,56.40
2018-09-04T06:08:59.819Z,55.40
2018-09-04T06:09:59.798Z,57.80
2018-09-04T06:10:59.783Z,55.20
2018-09-04T06:11:59.772Z,58.70
2018-09-04T06:12:59.751Z,58.50
2018-09-04T06:13:59.749Z,55.70
2018-09-04T06:14:59.718Z,58.10
2018-09-04T06:15:59.704Z,56.80
2018-09-04T06:16:59.687Z,58.20
2018-09-04T06:17:59.674Z,61.00
2018-09-04T06:18:59.656Z,60.90
2018-09-04T06:19:59.658Z,65.00
2018-09-04T06:20:59.625Z,64.10
2018-09-04T06:21:59.607Z,62.60
2018-09-04T06:22:59.593Z,65.00
2018-09-04T06:23:59.577Z,67.20
2018-09-04T06:24:59.564Z,64.50
2018-09-04T06:25:59.546Z,62.40
2018-09-04T06:26:59.530Z,65.10
2018-09-04T06:27:59.515Z,64.00
2018-09-04T06:28:59.502Z,69.00
2018-09-04T06:29:59.485Z,68.10
2018-09-04T06:30:59.468Z,69.30
2018-09-04T06:31:59.455Z,69.90
2018-09-04T06:32:59.437Z,69.70
2018-09-04T06:33:59.478Z,68.00
2018-09-04T06:34:59.408Z,71.50
2018-09-04T06:35:59.392Z,70.80
2018-09-04T06:36:59.379Z,72.40
2018-09-04T06:37:59.359Z,70.70
2018-09-04T06:38:59.352Z,70.60
2018-09-04T06:39:59.329Z,72.60
2018-09-04T06:40:59.309Z,68.10
2018-09-04T06:41:59.298Z,69.60
2018-09-04T06:42:59.285Z,72.10
2018-09-04T06:43:59.272Z,69.80
2018-09-04T06:44:59.248Z,70.20
2018-09-04T06:45:59.233Z,72.50
2018-09-04T06:46:59.219Z,75.30
2018-09-04T06:47:59.202Z,73.50
2018-09-04T06:48:59.235Z,71.70
2018-09-04T06:49:59.171Z,71.30
2018-09-04T06:50:59.157Z,71.80
2018-09-04T06:51:59.143Z,72.50
2018-09-04T06:52:59.129Z,73.90
2018-09-04T06:53:59.109Z,74.90
2018-09-04T06:54:59.094Z,75.80
2018-09-04T06:55:59.076Z,73.70
2018-09-04T06:56:59.063Z,73.80
2018-09-04T06:57:59.170Z,72.40
2018-09-04T06:58:59.033Z,71.80
2018-09-04T06:59:59.016Z,70.70
2018-09-04T07:00:59.010Z,72.80
2018-09-04T07:01:58.987Z,70.50
2018-09-04T07:02:58.969Z,68.70
2018-09-04T07:03:58.961Z,68.70
2018-09-04T07:04:58.941Z,70.60
2018-09-04T07:05:58.969Z,72.70
2018-09-04T07:06:58.910Z,71.00
2018-09-04T07:07:58.893Z,72.30
2018-09-04T07:08:58.878Z,73.40
2018-09-04T07:09:58.862Z,70.50
2018-09-04T07:10:58.853Z,72.70
2018-09-04T07:11:58.832Z,70.70
2018-09-04T07:12:58.812Z,72.40
2018-09-04T07:13:58.800Z,71.70
2018-09-04T07:14:58.817Z,68.70
2018-09-04T07:15:58.766Z,71.10
2018-09-04T07:16:58.812Z,69.60
2018-09-04T07:17:58.742Z,70.40
2018-09-04T07:18:58.721Z,70.20
2018-09-04T07:19:58.707Z,70.60
2018-09-04T07:20:58.689Z,71.70
2018-09-04T07:21:58.673Z,72.00
2018-09-04T07:22:58.658Z,71.20
2018-09-04T07:23:58.649Z,71.00
2018-09-04T07:24:58.636Z,67.90
2018-09-04T07:25:58.612Z,70.60
2018-09-04T07:26:58.600Z,67.90
2018-09-04T07:27:58.581Z,70.90
2018-09-04T07:28:58.568Z,66.60
2018-09-04T07:29:58.551Z,70.90
2018-09-04T07:30:58.536Z,68.60
2018-09-04T07:31:58.520Z,67.10
2018-09-04T07:32:58.503Z,70.10
2018-09-04T07:33:58.489Z,67.70
2018-09-04T07:34:58.473Z,67.40
2018-09-04T07:35:58.459Z,69.00
2018-09-04T07:36:58.454Z,69.90
2018-09-04T07:37:58.427Z,67.00
2018-09-04T07:38:58.422Z,70.40
2018-09-04T07:39:58.403Z,68.30
2018-09-04T07:40:58.379Z,66.40
2018-09-04T07:41:58.480Z,68.60
2018-09-04T07:42:58.350Z,66.80
2018-09-04T07:43:58.337Z,66.40
2018-09-04T07:44:58.321Z,67.60
2018-09-04T07:45:58.309Z,68.60
2018-09-04T07:46:58.288Z,67.30
2018-09-04T07:47:58.272Z,66.50
2018-09-04T07:48:58.259Z,65.10
2018-09-04T07:49:58.245Z,64.10
2018-09-04T07:50:58.227Z,64.20
2018-09-04T07:51:58.215Z,67.40
2018-09-04T07:52:58.200Z,66.20
2018-09-04T07:53:58.182Z,66.40
2018-09-04T07:54:58.170Z,65.20
2018-09-04T07:55:58.153Z,68.30
2018-09-04T07:56:58.138Z,66.10
2018-09-04T07:57:58.119Z,65.80
2018-09-04T07:58:58.107Z,68.80
2018-09-04T07:59:58.089Z,65.30
2018-09-04T08:00:58.161Z,63.70
2018-09-04T08:01:58.064Z,64.70
2018-09-04T08:02:58.043Z,68.40
2018-09-04T08:03:58.034Z,66.50
2018-09-04T08:04:58.016Z,68.40
2018-09-04T08:05:58.000Z,68.30
2018-09-04T08:06:57.984Z,66.30
2018-09-04T08:07:57.969Z,66.90
2018-09-04T08:08:57.954Z,66.10
2018-09-04T08:09:57.944Z,67.30
2018-09-04T08:10:57.926Z,67.00
2018-09-04T08:11:57.907Z,64.90
2018-09-04T08:12:57.894Z,65.10
2018-09-04T08:13:57.884Z,65.00
2018-09-04T08:14:57.866Z,66.10
2018-09-04T08:15:57.853Z,62.30
2018-09-04T08:16:57.835Z,66.10
2018-09-04T08:17:57.818Z,64.00
2018-09-04T08:18:57.803Z,63.40
2018-09-04T08:19:57.813Z,66.40
2018-09-04T08:20:57.879Z,65.50
2018-09-04T08:21:57.763Z,63.80
2018-09-04T08:22:57.744Z,65.20
2018-09-04T08:23:57.726Z,66.50
2018-09-04T08:24:57.713Z,64.60
2018-09-04T08:25:57.760Z,62.70
2018-09-04T08:26:57.683Z,64.30
2018-09-04T08:27:57.671Z,64.20
2018-09-04T08:28:57.655Z,64.30
2018-09-04T08:29:57.636Z,65.30
2018-09-04T08:30:57.623Z,66.10
2018-09-04T08:31:57.611Z,62.90
2018-09-04T08:32:57.692Z,65.80
2018-09-04T08:33:57.584Z,61.90
2018-09-04T08:34:57.565Z,66.10
2018-09-04T08:35:57.566Z,61.50
2018-09-04T08:36:57.536Z,61.40
2018-09-04T08:37:57.528Z,61.30
2018-09-04T08:38:57.505Z,62.80
2018-09-04T08:39:57.526Z,60.90
2018-09-04T08:40:57.477Z,63.40
2018-09-04T08:41:57.460Z,62.90
2018-09-04T08:42:57.451Z,63.90
2018-09-04T08:43:57.434Z,64.00
2018-09-04T08:44:57.416Z,63.40
2018-09-04T08:45:57.410Z,60.60
2018-09-04T08:46:57.386Z,61.90
2018-09-04T08:47:57.379Z,63.00
2018-09-04T08:48:57.359Z,58.60
2018-09-04T08:49:57.348Z,61.50
2018-09-04T08:50:57.336Z,62.20
2018-09-04T08:51:57.312Z,61.90
2018-09-04T08:52:57.299Z,62.80
2018-09-04T08:53:57.294Z,62.10
2018-09-04T08:54:57.272Z,62.00
2018-09-04T08:55:57.257Z,61.10
2018-09-04T08:56:57.240Z,61.80
2018-09-04T08:57:57.229Z,60.60
2018-09-04T08:58:57.209Z,62.70
2018-09-04T08:59:57.195Z,62.10
2018-09-04T09:00:57.185Z,63.60
2018-09-04T09:01:57.170Z,64.10
2018-09-04T09:02:57.154Z,61.90
2018-09-04T09:03:57.139Z,61.70
2018-09-04T09:04:57.126Z,60.80
2018-09-04T09:05:57.114Z,60.40
2018-09-04T09:06:57.100Z,56.70
2018-09-04T09:07:57.086Z,57.80
2018-09-04T09:08:57.069Z,59.30
2018-09-04T09:09:57.077Z,56.40
2018-09-04T09:10:57.041Z,57.70
2018-09-04T09:11:57.031Z,59.10
2018-09-04T09:12:57.017Z,60.20
2018-09-04T09:13:57.003Z,58.60
2018-09-04T09:14:56.985Z,58.70
2018-09-04T09:15:56.972Z,54.90
2018-09-04T09:16:56.959Z,54.80
2018-09-04T09:17:56.943Z,55.00
2018-09-04T09:18:56.925Z,54.60
2018-09-04T09:19:56.912Z,58.70
2018-09-04T09:20:56.899Z,55.50
2018-09-04T09:21:56.885Z,56.30
2018-09-04T09:22:56.905Z,59.50
2018-09-04T09:23:56.855Z,56.60
2018-09-04T09:24:56.841Z,59.20
2018-09-04T09:25:56.827Z,58.80
2018-09-04T09:26:56.815Z,56.10
2018-09-04T09:27:56.808Z,56.50
2018-09-04T09:28:56.787Z,55.50
2018-09-04T09:29:56.772Z,55.40
2018-09-04T09:30:56.758Z,59.50
2018-09-04T09:31:56.742Z,55.10
2018-09-04T09:32:56.728Z,55.20
2018-09-04T09:33:56.717Z,56.50
2018-09-04T09:34:56.705Z,56.50
2018-09-04T09:35:56.684Z,59.30
2018-09-04T09:36:56.743Z,55.50
2018-09-04T09:37:56.663Z,55.00
2018-09-04T09:38:56.645Z,56.20
2018-09-04T09:39:56.634Z,56.00
2018-09-04T09:40:56.622Z,55.30
2018-09-04T09:41:56.606Z,54.90
2018-09-04T09:42:56.594Z,51.40
2018-09-04T09:43:56.574Z,50.60
2018-09-04T09:44:56.565Z,49.50
2018-09-04T09:45:56.551Z,49.30
2018-09-04T09:46:56.544Z,50.80
2018-09-04T09:47:56.524Z,49.80
2018-09-04T09:48:56.513Z,52.90
2018-09-04T09:49:56.494Z,49.00
2018-09-04T09:50:56.481Z,47.30
2018-09-04T09:51:56.476Z,47.90
2018-09-04T09:52:56.460Z,48.60
2018-09-04T09:53:56.465Z,48.00
2018-09-04T09:54:56.422Z,51.30
2018-09-04T09:55:56.411Z,51.60
2018-09-04T09:56:56.396Z,48.20
2018-09-04T09:57:56.382Z,46.20
2018-09-04T09:58:56.368Z,47.40
2018-09-04T09:59:56.476Z,47.00
2018-09-04T10:00:56.353Z,45.00
2018-09-04T10:01:56.332Z,47.40
2018-09-04T10:02:56.315Z,44.60
2018-09-04T10:03:56.342Z,41.90
2018-09-04T10:04:56.296Z,42.00
2018-09-04T10:05:56.313Z,38.80
2018-09-04T10:06:56.261Z,41.00
2018-09-04T10:07:56.302Z,39.00
2018-09-04T10:08:56.234Z,40.40
2018-09-04T10:09:56.290Z,40.00
2018-09-04T10:10:56.204Z,36.60
2018-09-04T10:11:56.189Z,38.50
2018-09-04T10:12:56.178Z,35.80
2018-09-04T10:13:56.178Z,35.40
2018-09-04T10:14:56.149Z,34.80
2018-09-04T10:15:56.148Z,36.30
2018-09-04T10:16:56.123Z,35.60
2018-09-04T10:17:56.111Z,34.60
2018-09-04T10:18:56.101Z,31.70
2018-09-04T10:19:56.241Z,31.40
2018-09-04T10:20:56.070Z,35.50
2018-09-04T10:21:56.061Z,33.80
2018-09-04T10:22:56.041Z,34.90
2018-09-04T10:23:56.035Z,33.80
2018-09-04T10:24:56.018Z,34.70
2018-09-04T10:25:56.013Z,37.00
2018-09-04T10:26:55.997Z,34.90
2018-09-04T10:27:55.978Z,34.70
2018-09-04T10:28:55.971Z,34.20
2018-09-04T10:29:55.957Z,36.00
2018-09-04T10:30:55.951Z,35.90
2018-09-04T10:31:55.935Z,36.60
2018-09-04T10:32:55.910Z,38.20
2018-09-04T10:33:55.898Z,35.60
2018-09-04T10:34:55.889Z,36.20
2018-09-04T10:35:55.873Z,34.20
2018-09-04T10:36:55.874Z,35.40
2018-09-04T10:37:55.850Z,36.00
2018-09-04T10:38:55.831Z,36.20
2018-09-04T10:39:55.825Z,37.10
2018-09-04T10:40:55.806Z,38.00
2018-09-04T10:41:55.796Z,36.20
2018-09-04T10:42:55.784Z,37.00
2018-09-04T10:43:55.774Z,38.90
2018-09-04T10:44:55.755Z,37.20
2018-09-04T10:45:55.743Z,39.30
2018-09-04T10:46:55.729Z,39.90
2018-09-04T10:47:55.718Z,43.70
2018-09-04T10:48:55.705Z,42.10
2018-09-04T10:49:55.688Z,41.00
2018-09-04T10:50:55.679Z,43.70
2018-09-04T10:51:55.672Z,43.70
2018-09-04T10:52:55.650Z,45.10
2018-09-04T10:53:55.636Z,44.50
2018-09-04T10:54:55.628Z,45.40
2018-09-04T10:55:55.621Z,45.00
2018-09-04T10:56:55.609Z,46.80
2018-09-04T10:57:55.590Z,45.20
2018-09-04T10:58:55.573Z,44.50
2018-09-04T10:59:55.566Z,44.60
2018-09-04T11:00:55.552Z,46.60
2018-09-04T11:01:55.535Z,44.80
2018-09-04T11:02:55.525Z,42.90
2018-09-04T11:03:55.504Z,43.80
2018-09-04T11:04:55.498Z,44.50
2018-09-04T11:05:55.484Z,43.80
2018-09-04T11:06:55.479Z,43.40
2018-09-04T11:07:55.462Z,43.50
2018-09-04T11:08:55.484Z,42.20
2018-09-04T11:09:55.594Z,42.60
2018-09-04T11:10:55.418Z,43.60
2018-09-04T11:11:55.409Z,45.70
2018-09-04T11:12:55.394Z,45.30
2018-09-04T11:13:55.384Z,43.40
2018-09-04T11:14:55.366Z,42.50
2018-09-04T11:15:55.354Z,41.00
2018-09-04T11:16:55.343Z,40.00
2018-09-04T11:17:55.330Z,41.80
2018-09-04T11:18:55.320Z,40.60
2018-09-04T11:19:55.305Z,43.70
2018-09-04T11:20:55.294Z,39.30
2018-09-04T11:21:55.288Z,41.30
2018-09-04T11:22:55.263Z,40.80
2018-09-04T11:23:55.251Z,40.00
2018-09-04T11:24:55.239Z,40.30
2018-09-04T11:25:55.227Z,39.20
2018-09-04T11:26:55.218Z,40.70
2018-09-04T11:27:55.200Z,38.70
2018-09-04T11:28:55.197Z,37.80
2018-09-04T11:29:55.174Z,37.60
2018-09-04T11:30:55.162Z,36.80
2018-09-04T11:31:55.152Z,38.50
2018-09-04T11:32:55.140Z,34.40
2018-09-04T11:33:55.137Z,33.10
2018-09-04T11:34:55.115Z,35.30
2018-09-04T11:35:55.101Z,37.40
2018-09-04T11:36:55.083Z,35.30
2018-09-04T11:37:55.074Z,37.20
2018-09-04T11:38:55.060Z,37.80
2018-09-04T11:39:55.051Z,38.10
2018-09-04T11:40:55.044Z,38.40
2018-09-04T11:41:55.024Z,37.80
2018-09-04T11:42:55.009Z,39.10
2018-09-04T11:43:54.999Z,36.40
2018-09-04T11:44:54.995Z,35.60
2018-09-04T11:45:54.975Z,35.00
2018-09-04T11:46:54.997Z,35.10
2018-09-04T11:47:54.955Z,38.00
2018-09-04T11:48:54.940Z,35.70
2018-09-04T11:49:54.926Z,37.80
2018-09-04T11:50:54.912Z,36.00
2018-09-04T11:51:54.909Z,38.90
2018-09-04T11:52:54.887Z,34.50
2018-09-04T11:53:54.880Z,34.80
2018-09-04T11:54:54.870Z,34.40
2018-09-04T11:55:54.846Z,33.10
2018-09-04T11:56:54.834Z,32.10
2018-09-04T11:57:54.825Z,33.00
2018-09-04T11:58:54.809Z,30.10
2018-09-04T11:59:54.801Z,30.60
2018-09-04T12:00:54.785Z,29.30
2018-09-04T12:01:54.778Z,30.00
2018-09-04T12:02:54.764Z,28.40
2018-09-04T12:03:54.762Z,29.10
2018-09-04T12:04:54.742Z,24.90
2018-09-04T12:05:54.819Z,23.60
2018-09-04T12:06:54.715Z,24.20
2018-09-04T12:07:54.698Z,24.00
2018-09-04T12:08:54.696Z,26.50
2018-09-04T12:09:54.672Z,24.50
2018-09-04T12:10:54.669Z,24.40
2018-09-04T12:11:54.651Z,25.00
2018-09-04T12:12:54.650Z,26.60
2018-09-04T12:13:54.623Z,25.00
2018-09-04T12:14:54.615Z,24.20
2018-09-04T12:15:54.603Z,24.80
2018-09-04T12:16:54.596Z,24.50
2018-09-04T12:17:54.577Z,23.40
2018-09-04T12:18:54.592Z,24.00
2018-09-04T12:19:54.553Z,26.60
2018-09-04T12:20:54.658Z,27.30
2018-09-04T12:21:54.527Z,24.20
2018-09-04T12:22:54.516Z,24.40
2018-09-04T12:23:54.506Z,24.40
2018-09-04T12:24:54.608Z,24.50
2018-09-04T12:25:54.479Z,26.90
2018-09-04T12:26:54.472Z,26.60
2018-09-04T12:27:54.453Z,26.20
2018-09-04T12:28:54.441Z,25.00
2018-09-04T12:29:54.427Z,24.70
2018-09-04T12:30:54.418Z,26.60
2018-09-04T12:31:54.403Z,26.90
2018-09-04T12:32:54.391Z,25.00
2018-09-04T12:33:54.453Z,26.90
2018-09-04T12:34:54.364Z,27.80
2018-09-04T12:35:54.355Z,31.20
2018-09-04T12:36:54.347Z,30.30
2018-09-04T12:37:54.332Z,29.90
2018-09-04T12:38:54.324Z,30.30
2018-09-04T12:39:54.311Z,29.90
2018-09-04T12:40:54.295Z,29.90
2018-09-04T12:41:54.281Z,30.40
2018-09-04T12:42:54.274Z,29.40
2018-09-04T12:43:54.260Z,30.70
2018-09-04T12:44:54.258Z,26.80
2018-09-04T12:45:54.235Z,23.80
2018-09-04T12:46:54.221Z,25.20
2018-09-04T12:47:54.259Z,24.60
2018-09-04T12:48:54.208Z,25.30
2018-09-04T12:49:54.194Z,26.60
2018-09-04T12:50:54.191Z,25.10
2018-09-04T12:51:54.164Z,24.60
2018-09-04T12:52:54.149Z,23.20
2018-09-04T12:53:54.138Z,23.10
2018-09-04T12:54:54.127Z,21.10
2018-09-04T12:55:54.112Z,22.70
2018-09-04T12:56:54.105Z,20.10
2018-09-04T12:57:54.090Z,18.80
2018-09-04T12:58:54.074Z,20.10
2018-09-04T12:59:54.178Z,21.30
2018-09-04T13:00:54.052Z,23.90
2018-09-04T13:01:54.048Z,24.70
2018-09-04T13:02:54.026Z,24.70
2018-09-04T13:03:54.021Z,24.40
2018-09-04T13:04:54.001Z,25.80
2018-09-04T13:05:53.992Z,26.30
2018-09-04T13:06:53.973Z,25.30
2018-09-04T13:07:53.966Z,25.00
2018-09-04T13:08:54.014Z,23.90
2018-09-04T13:09:53.946Z,21.30
2018-09-04T13:10:53.929Z,21.70
2018-09-04T13:11:53.916Z,21.60
2018-09-04T13:12:53.906Z,19.10
2018-09-04T13:13:53.885Z,20.10
2018-09-04T13:14:53.880Z,20.00